SHI4322 OITT-OIZH
Flight info
| Callsign | SHI4322 |
|---|---|
| Flight time | 2h 15m |
| Altitude | 35000 |
| Route | RUDAD R661 ZAJ G208 PAROT/N0424F270 G208 DAPAP |
| Aircraft | B733/M-SDE2E3FHIRW/S |
Departure
| Time | 2026-05-05 17:44 |
|---|---|
| Airport | Tabriz International Airport (OITT) |
Arrival
| Time | 2026-05-05 19:59 |
|---|---|
| Airport | Zahedan International Airport (OIZH) |
| Time | Latitude | Longitude | Altitude | Speed | Heading |
|---|---|---|---|---|---|
| 2026-05-05 17:12 | 38.12410 | 46.24475 | 4481 ft | 0 kts | 303° |
| 2026-05-05 17:39 | 38.12411 | 46.24474 | 4482 ft | 0 kts | 310° |
| 2026-05-05 17:40 | 38.12432 | 46.24450 | 4482 ft | 7 kts | 324° |
| 2026-05-05 17:40 | 38.12476 | 46.24443 | 4482 ft | 6 kts | 12° |
| 2026-05-05 17:40 | 38.12516 | 46.24460 | 4482 ft | 6 kts | 34° |
| 2026-05-05 17:40 | 38.12533 | 46.24493 | 4482 ft | 7 kts | 73° |
| 2026-05-05 17:41 | 38.12499 | 46.24588 | 4482 ft | 11 kts | 128° |
| 2026-05-05 17:41 | 38.12442 | 46.24674 | 4482 ft | 14 kts | 130° |
| 2026-05-05 17:41 | 38.12370 | 46.24779 | 4482 ft | 17 kts | 129° |
| 2026-05-05 17:41 | 38.12292 | 46.24902 | 4482 ft | 18 kts | 128° |
| 2026-05-05 17:42 | 38.12212 | 46.25029 | 4483 ft | 15 kts | 128° |
| 2026-05-05 17:42 | 38.12218 | 46.25141 | 4483 ft | 12 kts | 50° |
| 2026-05-05 17:42 | 38.12288 | 46.25156 | 4483 ft | 10 kts | 345° |
| 2026-05-05 17:42 | 38.12338 | 46.25151 | 4482 ft | 10 kts | 355° |
| 2026-05-05 17:43 | 38.12373 | 46.25119 | 4483 ft | 4 kts | 311° |
| 2026-05-05 17:43 | 38.12438 | 46.25015 | 4482 ft | 40 kts | 308° |
| 2026-05-05 17:43 | 38.12777 | 46.24484 | 4482 ft | 110 kts | 309° |
| 2026-05-05 17:43 | 38.13378 | 46.23541 | 4481 ft | 165 kts | 308° |
| 2026-05-05 17:44 | 38.13899 | 46.22711 | 4517 ft | 190 kts | 306° |
| 2026-05-05 17:44 | 38.15482 | 46.19275 | 5595 ft | 202 kts | 264° |
| 2026-05-05 17:44 | 38.14947 | 46.17690 | 5956 ft | 203 kts | 223° |
| 2026-05-05 17:45 | 38.13882 | 46.16404 | 6192 ft | 218 kts | 219° |
| 2026-05-05 17:45 | 38.12568 | 46.15355 | 6536 ft | 229 kts | 201° |
| 2026-05-05 17:45 | 38.10977 | 46.14924 | 7067 ft | 239 kts | 181° |
| 2026-05-05 17:45 | 38.09343 | 46.15239 | 7848 ft | 239 kts | 169° |
| 2026-05-05 17:46 | 38.08251 | 46.15350 | 8143 ft | 244 kts | 190° |
| 2026-05-05 17:46 | 38.07687 | 46.15188 | 8273 ft | 248 kts | 201° |
| 2026-05-05 17:46 | 38.04796 | 46.12704 | 9616 ft | 256 kts | 227° |
| 2026-05-05 17:46 | 38.03788 | 46.10833 | 10297 ft | 262 kts | 240° |
| 2026-05-05 17:47 | 38.03171 | 46.08514 | 10377 ft | 294 kts | 257° |
| 2026-05-05 17:47 | 38.03166 | 46.05768 | 10522 ft | 323 kts | 274° |
| 2026-05-05 17:47 | 38.03836 | 46.03009 | 11219 ft | 335 kts | 293° |
| 2026-05-05 17:47 | 38.05281 | 46.00655 | 11954 ft | 347 kts | 314° |
| 2026-05-05 17:48 | 38.07398 | 45.99108 | 12580 ft | 363 kts | 338° |
| 2026-05-05 17:48 | 38.09942 | 45.98701 | 13204 ft | 376 kts | 3° |
| 2026-05-05 17:48 | 38.12461 | 45.99647 | 13766 ft | 384 kts | 30° |
| 2026-05-05 17:48 | 38.14507 | 46.01834 | 14286 ft | 387 kts | 56° |
| 2026-05-05 17:49 | 38.15683 | 46.04888 | 14840 ft | 382 kts | 83° |
| 2026-05-05 17:49 | 38.15805 | 46.08181 | 15427 ft | 372 kts | 102° |
| 2026-05-05 17:49 | 38.15514 | 46.11490 | 15990 ft | 377 kts | 102° |
| 2026-05-05 17:49 | 38.15261 | 46.14777 | 16649 ft | 379 kts | 101° |
| 2026-05-05 17:50 | 38.15037 | 46.18129 | 17252 ft | 382 kts | 101° |
| 2026-05-05 17:50 | 38.14524 | 46.21429 | 17734 ft | 375 kts | 120° |
| 2026-05-05 17:50 | 38.13162 | 46.24122 | 18302 ft | 364 kts | 136° |
| 2026-05-05 17:50 | 38.11535 | 46.26656 | 18864 ft | 367 kts | 136° |
| 2026-05-05 17:51 | 38.09928 | 46.29192 | 19374 ft | 373 kts | 135° |
| 2026-05-05 17:51 | 38.08312 | 46.31770 | 19925 ft | 376 kts | 135° |
| 2026-05-05 17:51 | 38.06669 | 46.34403 | 20496 ft | 378 kts | 135° |
| 2026-05-05 17:51 | 38.05048 | 46.37010 | 21094 ft | 380 kts | 135° |
| 2026-05-05 17:52 | 38.03404 | 46.39649 | 21513 ft | 386 kts | 135° |
| 2026-05-05 17:52 | 38.01732 | 46.42335 | 22001 ft | 389 kts | 135° |
| 2026-05-05 17:52 | 38.00030 | 46.45069 | 22479 ft | 393 kts | 135° |
| 2026-05-05 17:52 | 37.98332 | 46.47792 | 23021 ft | 394 kts | 135° |
| 2026-05-05 17:53 | 37.96625 | 46.50528 | 23477 ft | 398 kts | 136° |
| 2026-05-05 17:53 | 37.94920 | 46.53258 | 24062 ft | 398 kts | 136° |
| 2026-05-05 17:53 | 37.93193 | 46.56021 | 24612 ft | 399 kts | 136° |
| 2026-05-05 17:53 | 37.91461 | 46.58789 | 25018 ft | 403 kts | 136° |
| 2026-05-05 17:54 | 37.89708 | 46.61592 | 25562 ft | 404 kts | 136° |
| 2026-05-05 17:54 | 37.87954 | 46.64376 | 25963 ft | 407 kts | 136° |
| 2026-05-05 17:54 | 37.86186 | 46.67194 | 26475 ft | 408 kts | 137° |
| 2026-05-05 17:54 | 37.84416 | 46.70021 | 26857 ft | 411 kts | 137° |
| 2026-05-05 17:55 | 37.82636 | 46.72861 | 27352 ft | 411 kts | 137° |
| 2026-05-05 17:55 | 37.80845 | 46.75711 | 27694 ft | 415 kts | 137° |
| 2026-05-05 17:55 | 37.79059 | 46.78551 | 28135 ft | 417 kts | 137° |
| 2026-05-05 17:55 | 37.77248 | 46.81426 | 28540 ft | 418 kts | 138° |
| 2026-05-05 17:56 | 37.75401 | 46.84355 | 28850 ft | 422 kts | 138° |
| 2026-05-05 17:56 | 37.74198 | 46.86264 | 29192 ft | 422 kts | 138° |
| 2026-05-05 17:56 | 37.71746 | 46.90147 | 29634 ft | 426 kts | 138° |
| 2026-05-05 17:56 | 37.69892 | 46.93082 | 30072 ft | 426 kts | 138° |
| 2026-05-05 17:57 | 37.68039 | 46.96012 | 30511 ft | 426 kts | 139° |
| 2026-05-05 17:57 | 37.66181 | 46.98908 | 30861 ft | 427 kts | 139° |
| 2026-05-05 17:57 | 37.64293 | 47.01857 | 31289 ft | 426 kts | 139° |
| 2026-05-05 17:57 | 37.62463 | 47.04735 | 31717 ft | 425 kts | 139° |
| 2026-05-05 17:58 | 37.60615 | 47.07647 | 32179 ft | 423 kts | 139° |
| 2026-05-05 17:58 | 37.58763 | 47.10564 | 32517 ft | 423 kts | 139° |
| 2026-05-05 17:58 | 37.56911 | 47.13478 | 32812 ft | 424 kts | 139° |
| 2026-05-05 17:58 | 37.55052 | 47.16400 | 33032 ft | 427 kts | 138° |
| 2026-05-05 17:59 | 37.53203 | 47.19308 | 33379 ft | 426 kts | 138° |
| 2026-05-05 17:59 | 37.51350 | 47.22223 | 33752 ft | 424 kts | 139° |
| 2026-05-05 17:59 | 37.49493 | 47.25136 | 34066 ft | 424 kts | 139° |
| 2026-05-05 17:59 | 37.47650 | 47.28024 | 34273 ft | 425 kts | 139° |
| 2026-05-05 18:00 | 37.45808 | 47.30910 | 34446 ft | 424 kts | 138° |
| 2026-05-05 18:00 | 37.44029 | 47.33698 | 34611 ft | 421 kts | 139° |
| 2026-05-05 18:00 | 37.42198 | 47.36560 | 34776 ft | 422 kts | 139° |
| 2026-05-05 18:00 | 37.40347 | 47.39449 | 34935 ft | 424 kts | 139° |
| 2026-05-05 18:01 | 37.38488 | 47.42327 | 35032 ft | 422 kts | 139° |
| 2026-05-05 18:01 | 37.34741 | 47.48026 | 35012 ft | 423 kts | 139° |
| 2026-05-05 18:02 | 37.31023 | 47.53790 | 35006 ft | 426 kts | 139° |
| 2026-05-05 18:02 | 37.27295 | 47.59592 | 35025 ft | 422 kts | 139° |
| 2026-05-05 18:03 | 37.23593 | 47.65337 | 35009 ft | 424 kts | 139° |
| 2026-05-05 18:03 | 37.19893 | 47.71102 | 34968 ft | 427 kts | 140° |
| 2026-05-05 18:04 | 37.16117 | 47.76953 | 34914 ft | 433 kts | 141° |
| 2026-05-05 18:04 | 37.14220 | 47.79884 | 35088 ft | 436 kts | 141° |
| 2026-05-05 18:04 | 37.12293 | 47.82861 | 35048 ft | 437 kts | 141° |
| 2026-05-05 18:05 | 37.08473 | 47.88761 | 35030 ft | 436 kts | 141° |
| 2026-05-05 18:05 | 37.04687 | 47.94587 | 35042 ft | 439 kts | 141° |
| 2026-05-05 18:06 | 37.00809 | 48.00550 | 35037 ft | 439 kts | 141° |
| 2026-05-05 18:06 | 36.96973 | 48.06437 | 35040 ft | 438 kts | 141° |
| 2026-05-05 18:07 | 36.93104 | 48.12362 | 35068 ft | 439 kts | 141° |
| 2026-05-05 18:07 | 36.89223 | 48.18294 | 34993 ft | 437 kts | 140° |
| 2026-05-05 18:07 | 36.87309 | 48.21208 | 35119 ft | 428 kts | 140° |
| 2026-05-05 18:08 | 36.85421 | 48.24078 | 35117 ft | 426 kts | 140° |
| 2026-05-05 18:08 | 36.81662 | 48.29792 | 34981 ft | 425 kts | 140° |
| 2026-05-05 18:09 | 36.77919 | 48.35571 | 35065 ft | 438 kts | 134° |
| 2026-05-05 18:09 | 36.76458 | 48.39079 | 35059 ft | 456 kts | 123° |
| 2026-05-05 18:09 | 36.75228 | 48.42752 | 35055 ft | 462 kts | 122° |
| 2026-05-05 18:10 | 36.72709 | 48.50158 | 35115 ft | 465 kts | 123° |
| 2026-05-05 18:10 | 36.70461 | 48.56547 | 35095 ft | 464 kts | 123° |
| 2026-05-05 18:11 | 36.67849 | 48.63912 | 35117 ft | 465 kts | 123° |
| 2026-05-05 18:11 | 36.65228 | 48.71323 | 35134 ft | 462 kts | 124° |
| 2026-05-05 18:12 | 36.62639 | 48.78604 | 35124 ft | 463 kts | 124° |
| 2026-05-05 18:12 | 36.60003 | 48.85947 | 35130 ft | 464 kts | 124° |
| 2026-05-05 18:13 | 36.57792 | 48.92067 | 35129 ft | 461 kts | 124° |
| 2026-05-05 18:13 | 36.55165 | 48.99364 | 35138 ft | 463 kts | 124° |
| 2026-05-05 18:14 | 36.52101 | 49.07867 | 35128 ft | 462 kts | 124° |
| 2026-05-05 18:14 | 36.49898 | 49.13965 | 35114 ft | 463 kts | 124° |
| 2026-05-05 18:15 | 36.46806 | 49.22509 | 35063 ft | 464 kts | 124° |
| 2026-05-05 18:15 | 36.44210 | 49.29658 | 35095 ft | 465 kts | 124° |
| 2026-05-05 18:16 | 36.41562 | 49.36942 | 35087 ft | 460 kts | 123° |
| 2026-05-05 18:16 | 36.38938 | 49.44131 | 35084 ft | 461 kts | 123° |
| 2026-05-05 18:17 | 36.36281 | 49.51397 | 35069 ft | 463 kts | 123° |
| 2026-05-05 18:17 | 36.33624 | 49.58655 | 35078 ft | 461 kts | 123° |
| 2026-05-05 18:18 | 36.31397 | 49.64718 | 35064 ft | 463 kts | 123° |
| 2026-05-05 18:18 | 36.28302 | 49.73162 | 35054 ft | 461 kts | 124° |
| 2026-05-05 18:19 | 36.25623 | 49.80430 | 35053 ft | 461 kts | 124° |
| 2026-05-05 18:19 | 36.22963 | 49.87621 | 35013 ft | 462 kts | 124° |
| 2026-05-05 18:20 | 36.20285 | 49.94843 | 34995 ft | 462 kts | 123° |
| 2026-05-05 18:20 | 36.18855 | 49.98405 | 34969 ft | 450 kts | 134° |
| 2026-05-05 18:20 | 36.16992 | 50.01440 | 34978 ft | 440 kts | 140° |
| 2026-05-05 18:21 | 36.13071 | 50.07271 | 34987 ft | 444 kts | 139° |
| 2026-05-05 18:21 | 36.09174 | 50.13290 | 35001 ft | 446 kts | 138° |
| 2026-05-05 18:22 | 36.05340 | 50.19256 | 35036 ft | 444 kts | 139° |
| 2026-05-05 18:22 | 36.01468 | 50.25263 | 35050 ft | 447 kts | 139° |
| 2026-05-05 18:23 | 35.97595 | 50.31267 | 35091 ft | 446 kts | 139° |
| 2026-05-05 18:23 | 35.93729 | 50.37235 | 35101 ft | 443 kts | 139° |
| 2026-05-05 18:24 | 35.89861 | 50.43185 | 35113 ft | 447 kts | 138° |
| 2026-05-05 18:24 | 35.85988 | 50.49141 | 35107 ft | 442 kts | 138° |
| 2026-05-05 18:25 | 35.82093 | 50.55131 | 35129 ft | 447 kts | 137° |
| 2026-05-05 18:25 | 35.78191 | 50.61137 | 35119 ft | 448 kts | 137° |
| 2026-05-05 18:26 | 35.74317 | 50.67096 | 35086 ft | 447 kts | 138° |
| 2026-05-05 18:26 | 35.70424 | 50.73093 | 35131 ft | 446 kts | 139° |
| 2026-05-05 18:27 | 35.66531 | 50.79010 | 35142 ft | 447 kts | 138° |
| 2026-05-05 18:27 | 35.62644 | 50.84943 | 35152 ft | 444 kts | 138° |
| 2026-05-05 18:28 | 35.56777 | 50.93885 | 35131 ft | 447 kts | 138° |
| 2026-05-05 18:28 | 35.52851 | 50.99860 | 35103 ft | 447 kts | 138° |
| 2026-05-05 18:29 | 35.48951 | 51.05783 | 35056 ft | 448 kts | 137° |
| 2026-05-05 18:29 | 35.45010 | 51.11762 | 35038 ft | 444 kts | 138° |
| 2026-05-05 18:30 | 35.41127 | 51.17666 | 35045 ft | 447 kts | 135° |
| 2026-05-05 18:30 | 35.39520 | 51.20889 | 35068 ft | 459 kts | 125° |
| 2026-05-05 18:30 | 35.38079 | 51.24370 | 35047 ft | 464 kts | 124° |
| 2026-05-05 18:31 | 35.35160 | 51.31419 | 35061 ft | 464 kts | 124° |
| 2026-05-05 18:31 | 35.32169 | 51.38437 | 35046 ft | 460 kts | 125° |
| 2026-05-05 18:32 | 35.29182 | 51.45400 | 35055 ft | 464 kts | 125° |
| 2026-05-05 18:32 | 35.26191 | 51.52372 | 35062 ft | 461 kts | 125° |
| 2026-05-05 18:33 | 35.23198 | 51.59322 | 35075 ft | 464 kts | 125° |
| 2026-05-05 18:33 | 35.20179 | 51.66329 | 35010 ft | 463 kts | 125° |
| 2026-05-05 18:34 | 35.17193 | 51.73270 | 35045 ft | 463 kts | 125° |
| 2026-05-05 18:34 | 35.14172 | 51.80252 | 35059 ft | 464 kts | 125° |
| 2026-05-05 18:35 | 35.11156 | 51.87204 | 35051 ft | 464 kts | 125° |
| 2026-05-05 18:35 | 35.08120 | 51.94189 | 35015 ft | 465 kts | 125° |
| 2026-05-05 18:36 | 35.05089 | 52.01148 | 35020 ft | 464 kts | 125° |
| 2026-05-05 18:36 | 35.02042 | 52.08100 | 35007 ft | 463 kts | 126° |
| 2026-05-05 18:37 | 34.98967 | 52.15031 | 34987 ft | 466 kts | 124° |
| 2026-05-05 18:37 | 34.95906 | 52.22010 | 35006 ft | 465 kts | 124° |
| 2026-05-05 18:38 | 34.92881 | 52.28909 | 34985 ft | 465 kts | 124° |
| 2026-05-05 18:38 | 34.89494 | 52.35574 | 35105 ft | 448 kts | 142° |
| 2026-05-05 18:39 | 34.84858 | 52.40642 | 35199 ft | 448 kts | 145° |
| 2026-05-05 18:39 | 34.80213 | 52.45806 | 35188 ft | 451 kts | 144° |
| 2026-05-05 18:40 | 34.75660 | 52.50978 | 35155 ft | 447 kts | 144° |
| 2026-05-05 18:40 | 34.71174 | 52.56067 | 35053 ft | 449 kts | 144° |
| 2026-05-05 18:41 | 34.66604 | 52.61246 | 35049 ft | 448 kts | 144° |
| 2026-05-05 18:41 | 34.62043 | 52.66407 | 34986 ft | 449 kts | 144° |
| 2026-05-05 18:42 | 34.57467 | 52.71598 | 35023 ft | 449 kts | 144° |
| 2026-05-05 18:42 | 34.52891 | 52.76762 | 35023 ft | 449 kts | 144° |
| 2026-05-05 18:43 | 34.48302 | 52.81929 | 35024 ft | 448 kts | 144° |
| 2026-05-05 18:43 | 34.43748 | 52.87046 | 35017 ft | 447 kts | 144° |
| 2026-05-05 18:44 | 34.39178 | 52.92173 | 35002 ft | 451 kts | 144° |
| 2026-05-05 18:44 | 34.34538 | 52.97374 | 35022 ft | 449 kts | 144° |
| 2026-05-05 18:45 | 34.29964 | 53.02488 | 35008 ft | 450 kts | 144° |
| 2026-05-05 18:45 | 34.25395 | 53.07593 | 35002 ft | 451 kts | 144° |
| 2026-05-05 18:46 | 34.20790 | 53.12728 | 35000 ft | 450 kts | 144° |
| 2026-05-05 18:46 | 34.16163 | 53.17880 | 34998 ft | 450 kts | 144° |
| 2026-05-05 18:47 | 34.11557 | 53.23000 | 34978 ft | 451 kts | 144° |
| 2026-05-05 18:47 | 34.06942 | 53.28122 | 34996 ft | 452 kts | 144° |
| 2026-05-05 18:48 | 34.02314 | 53.33252 | 34984 ft | 452 kts | 143° |
| 2026-05-05 18:48 | 33.97645 | 53.38419 | 34988 ft | 452 kts | 144° |
| 2026-05-05 18:49 | 33.93021 | 53.43527 | 35010 ft | 451 kts | 143° |
| 2026-05-05 18:49 | 33.88399 | 53.48619 | 34960 ft | 451 kts | 143° |
| 2026-05-05 18:50 | 33.83738 | 53.53733 | 35040 ft | 451 kts | 143° |
| 2026-05-05 18:50 | 33.79196 | 53.58726 | 35025 ft | 449 kts | 143° |
| 2026-05-05 18:51 | 33.74569 | 53.63807 | 34989 ft | 450 kts | 143° |
| 2026-05-05 18:51 | 33.69937 | 53.68902 | 35016 ft | 453 kts | 144° |
| 2026-05-05 18:52 | 33.69159 | 53.69759 | 35021 ft | 453 kts | 144° |
| 2026-05-05 18:52 | 33.61380 | 53.78280 | 35036 ft | 451 kts | 144° |
| 2026-05-05 18:53 | 33.55944 | 53.84211 | 35035 ft | 454 kts | 144° |
| 2026-05-05 18:53 | 33.51427 | 53.89530 | 35026 ft | 462 kts | 131° |
| 2026-05-05 18:54 | 33.48380 | 53.94934 | 35049 ft | 469 kts | 128° |
| 2026-05-05 18:54 | 33.44186 | 54.02479 | 35034 ft | 467 kts | 129° |
| 2026-05-05 18:55 | 33.40529 | 54.08920 | 35069 ft | 466 kts | 129° |
| 2026-05-05 18:55 | 33.36979 | 54.15154 | 35096 ft | 470 kts | 129° |
| 2026-05-05 18:56 | 33.33915 | 54.20532 | 35112 ft | 466 kts | 130° |
| 2026-05-05 18:56 | 33.30260 | 54.26934 | 35107 ft | 467 kts | 130° |
| 2026-05-05 18:57 | 33.26589 | 54.33354 | 35102 ft | 466 kts | 130° |
| 2026-05-05 18:57 | 33.22318 | 54.40810 | 35079 ft | 466 kts | 130° |
| 2026-05-05 18:58 | 33.18648 | 54.47200 | 35069 ft | 468 kts | 130° |
| 2026-05-05 18:58 | 33.15580 | 54.52540 | 35046 ft | 466 kts | 130° |
| 2026-05-05 18:59 | 33.11264 | 54.60032 | 35063 ft | 470 kts | 129° |
| 2026-05-05 18:59 | 33.07544 | 54.66485 | 35052 ft | 469 kts | 130° |
| 2026-05-05 19:00 | 33.03863 | 54.72880 | 35051 ft | 472 kts | 130° |
| 2026-05-05 19:00 | 33.00255 | 54.79115 | 35061 ft | 474 kts | 129° |
| 2026-05-05 19:01 | 32.96493 | 54.85599 | 35088 ft | 477 kts | 129° |
| 2026-05-05 19:01 | 32.93332 | 54.91043 | 35094 ft | 476 kts | 130° |
| 2026-05-05 19:02 | 32.89575 | 54.97503 | 35130 ft | 473 kts | 129° |
| 2026-05-05 19:02 | 32.85981 | 55.03975 | 35091 ft | 466 kts | 127° |
| 2026-05-05 19:03 | 32.81911 | 55.11552 | 35042 ft | 465 kts | 127° |
| 2026-05-05 19:03 | 32.79006 | 55.16960 | 35028 ft | 465 kts | 127° |
| 2026-05-05 19:04 | 32.75514 | 55.23449 | 35025 ft | 464 kts | 128° |
| 2026-05-05 19:04 | 32.71436 | 55.31006 | 35036 ft | 467 kts | 127° |
| 2026-05-05 19:05 | 32.68496 | 55.36450 | 35059 ft | 468 kts | 128° |
| 2026-05-05 19:05 | 32.64486 | 55.43825 | 35038 ft | 466 kts | 128° |
| 2026-05-05 19:06 | 32.60942 | 55.50337 | 35003 ft | 471 kts | 127° |
| 2026-05-05 19:06 | 32.57359 | 55.56930 | 35026 ft | 478 kts | 127° |
| 2026-05-05 19:07 | 32.54348 | 55.62465 | 35107 ft | 484 kts | 128° |
| 2026-05-05 19:07 | 32.50106 | 55.70272 | 35097 ft | 481 kts | 128° |
| 2026-05-05 19:08 | 32.46482 | 55.76923 | 35089 ft | 480 kts | 128° |
| 2026-05-05 19:08 | 32.42824 | 55.83608 | 35111 ft | 482 kts | 128° |
| 2026-05-05 19:09 | 32.39780 | 55.89164 | 35110 ft | 483 kts | 128° |
| 2026-05-05 19:09 | 32.36118 | 55.95836 | 35108 ft | 484 kts | 128° |
| 2026-05-05 19:10 | 32.31828 | 56.03637 | 35093 ft | 485 kts | 128° |
| 2026-05-05 19:10 | 32.28397 | 56.09865 | 35120 ft | 483 kts | 128° |
| 2026-05-05 19:11 | 32.24741 | 56.16489 | 35112 ft | 484 kts | 128° |
| 2026-05-05 19:11 | 32.21047 | 56.23169 | 35102 ft | 486 kts | 128° |
| 2026-05-05 19:12 | 32.17355 | 56.29839 | 35127 ft | 483 kts | 128° |
| 2026-05-05 19:12 | 32.13653 | 56.36512 | 35094 ft | 485 kts | 128° |
| 2026-05-05 19:13 | 32.09946 | 56.43180 | 35104 ft | 486 kts | 128° |
| 2026-05-05 19:13 | 32.06233 | 56.49851 | 35098 ft | 485 kts | 128° |
| 2026-05-05 19:14 | 32.02521 | 56.56506 | 35087 ft | 487 kts | 128° |
| 2026-05-05 19:14 | 31.98794 | 56.63176 | 35051 ft | 487 kts | 128° |
| 2026-05-05 19:15 | 31.95007 | 56.69828 | 35035 ft | 486 kts | 129° |
| 2026-05-05 19:15 | 31.91894 | 56.75367 | 35042 ft | 487 kts | 128° |
| 2026-05-05 19:16 | 31.87798 | 56.82647 | 35028 ft | 487 kts | 129° |
| 2026-05-05 19:16 | 31.84059 | 56.89269 | 35023 ft | 489 kts | 128° |
| 2026-05-05 19:17 | 31.80301 | 56.95941 | 35024 ft | 488 kts | 128° |
| 2026-05-05 19:17 | 31.76539 | 57.02617 | 35002 ft | 490 kts | 128° |
| 2026-05-05 19:18 | 31.72787 | 57.09316 | 34993 ft | 489 kts | 128° |
| 2026-05-05 19:18 | 31.69691 | 57.14853 | 34982 ft | 489 kts | 128° |
| 2026-05-05 19:19 | 31.65943 | 57.21542 | 34975 ft | 489 kts | 128° |
| 2026-05-05 19:19 | 31.62177 | 57.28251 | 34935 ft | 488 kts | 128° |
| 2026-05-05 19:20 | 31.57828 | 57.35986 | 34920 ft | 491 kts | 128° |
| 2026-05-05 19:20 | 31.54696 | 57.41547 | 34929 ft | 489 kts | 128° |
| 2026-05-05 19:21 | 31.51150 | 57.47832 | 34916 ft | 489 kts | 128° |
| 2026-05-05 19:21 | 31.46739 | 57.55635 | 34895 ft | 491 kts | 128° |
| 2026-05-05 19:22 | 31.43612 | 57.61160 | 34909 ft | 491 kts | 128° |
| 2026-05-05 19:22 | 31.39177 | 57.68992 | 34876 ft | 491 kts | 128° |
| 2026-05-05 19:23 | 31.35396 | 57.75666 | 34913 ft | 492 kts | 129° |
| 2026-05-05 19:23 | 31.31614 | 57.82313 | 34880 ft | 490 kts | 128° |
| 2026-05-05 19:24 | 31.27817 | 57.88971 | 34885 ft | 492 kts | 129° |
| 2026-05-05 19:24 | 31.24019 | 57.95621 | 34861 ft | 491 kts | 128° |
| 2026-05-05 19:25 | 31.20212 | 58.02274 | 34851 ft | 493 kts | 129° |
| 2026-05-05 19:25 | 31.16386 | 58.08952 | 34835 ft | 494 kts | 129° |
| 2026-05-05 19:26 | 31.12905 | 58.15017 | 34837 ft | 494 kts | 129° |
| 2026-05-05 19:26 | 31.09091 | 58.21651 | 34822 ft | 493 kts | 128° |
| 2026-05-05 19:27 | 31.05246 | 58.28326 | 34841 ft | 496 kts | 129° |
| 2026-05-05 19:27 | 31.01385 | 58.35019 | 34854 ft | 495 kts | 128° |
| 2026-05-05 19:28 | 30.98181 | 58.40566 | 34859 ft | 495 kts | 128° |
| 2026-05-05 19:28 | 30.93692 | 58.48320 | 34876 ft | 495 kts | 128° |
| 2026-05-05 19:29 | 30.89831 | 58.54982 | 34908 ft | 490 kts | 128° |
| 2026-05-05 19:29 | 30.86653 | 58.60421 | 34912 ft | 486 kts | 128° |
| 2026-05-05 19:30 | 30.82203 | 58.68062 | 34911 ft | 489 kts | 128° |
| 2026-05-05 19:30 | 30.79022 | 58.73542 | 34963 ft | 490 kts | 129° |
| 2026-05-05 19:31 | 30.74869 | 58.80662 | 34965 ft | 489 kts | 128° |
| 2026-05-05 19:31 | 30.71643 | 58.86054 | 34964 ft | 491 kts | 129° |
| 2026-05-05 19:32 | 30.67725 | 58.92614 | 34977 ft | 491 kts | 128° |
| 2026-05-05 19:32 | 30.63870 | 58.99172 | 34990 ft | 491 kts | 129° |
| 2026-05-05 19:33 | 30.60002 | 59.05745 | 35006 ft | 491 kts | 129° |
| 2026-05-05 19:33 | 30.56799 | 59.11177 | 35012 ft | 490 kts | 129° |
| 2026-05-05 19:34 | 30.52294 | 59.18805 | 34999 ft | 492 kts | 129° |
| 2026-05-05 19:35 | 30.46485 | 59.28621 | 34923 ft | 489 kts | 129° |
| 2026-05-05 19:35 | 30.42636 | 59.35108 | 34938 ft | 492 kts | 129° |
| 2026-05-05 19:36 | 30.39401 | 59.40554 | 34937 ft | 492 kts | 129° |
| 2026-05-05 19:36 | 30.35981 | 59.46304 | 34967 ft | 495 kts | 129° |
| 2026-05-05 19:37 | 30.31403 | 59.53986 | 35045 ft | 500 kts | 129° |
| 2026-05-05 19:37 | 30.28117 | 59.59494 | 35048 ft | 498 kts | 129° |
| 2026-05-05 19:38 | 30.20244 | 59.72683 | 35091 ft | 499 kts | 129° |
| 2026-05-05 19:39 | 30.16292 | 59.79279 | 35073 ft | 499 kts | 129° |
| 2026-05-05 19:39 | 30.12320 | 59.85891 | 35126 ft | 499 kts | 129° |
| 2026-05-05 19:39 | 30.10327 | 59.89178 | 34680 ft | 508 kts | 130° |
| 2026-05-05 19:40 | 30.08262 | 59.92540 | 33889 ft | 509 kts | 129° |
| 2026-05-05 19:40 | 30.06223 | 59.95887 | 33066 ft | 506 kts | 128° |
| 2026-05-05 19:40 | 30.04219 | 59.99202 | 32352 ft | 503 kts | 128° |
| 2026-05-05 19:40 | 30.01573 | 60.03583 | 31428 ft | 499 kts | 128° |
| 2026-05-05 19:41 | 30.00240 | 60.05790 | 30958 ft | 496 kts | 128° |
| 2026-05-05 19:41 | 29.98289 | 60.09016 | 30260 ft | 492 kts | 127° |
| 2026-05-05 19:41 | 29.96593 | 60.11818 | 29638 ft | 489 kts | 127° |
| 2026-05-05 19:41 | 29.94027 | 60.16051 | 28723 ft | 482 kts | 126° |
| 2026-05-05 19:42 | 29.92728 | 60.18195 | 28241 ft | 479 kts | 126° |
| 2026-05-05 19:42 | 29.90842 | 60.21302 | 27569 ft | 474 kts | 126° |
| 2026-05-05 19:42 | 29.88965 | 60.24389 | 26841 ft | 470 kts | 126° |
| 2026-05-05 19:42 | 29.87069 | 60.27488 | 26113 ft | 465 kts | 126° |
| 2026-05-05 19:43 | 29.85229 | 60.30502 | 25389 ft | 462 kts | 126° |
| 2026-05-05 19:43 | 29.83384 | 60.33530 | 24668 ft | 454 kts | 125° |
| 2026-05-05 19:43 | 29.81606 | 60.36449 | 24044 ft | 442 kts | 125° |
| 2026-05-05 19:43 | 29.79293 | 60.40244 | 23240 ft | 426 kts | 125° |
| 2026-05-05 19:44 | 29.77596 | 60.43018 | 22660 ft | 419 kts | 126° |
| 2026-05-05 19:44 | 29.76443 | 60.44807 | 22259 ft | 415 kts | 127° |
| 2026-05-05 19:44 | 29.74698 | 60.47455 | 21669 ft | 409 kts | 127° |
| 2026-05-05 19:44 | 29.73002 | 60.50040 | 21166 ft | 403 kts | 126° |
| 2026-05-05 19:45 | 29.71325 | 60.52606 | 20693 ft | 404 kts | 126° |
| 2026-05-05 19:45 | 29.69623 | 60.55214 | 20316 ft | 401 kts | 126° |
| 2026-05-05 19:45 | 29.67402 | 60.58619 | 19918 ft | 401 kts | 126° |
| 2026-05-05 19:45 | 29.66277 | 60.60336 | 19716 ft | 400 kts | 126° |
| 2026-05-05 19:46 | 29.64599 | 60.62872 | 19421 ft | 397 kts | 127° |
| 2026-05-05 19:46 | 29.62365 | 60.66226 | 18952 ft | 395 kts | 127° |
| 2026-05-05 19:46 | 29.61535 | 60.67468 | 18717 ft | 394 kts | 127° |
| 2026-05-05 19:46 | 29.59880 | 60.69936 | 18254 ft | 389 kts | 127° |
| 2026-05-05 19:47 | 29.58222 | 60.72400 | 17793 ft | 382 kts | 127° |
| 2026-05-05 19:47 | 29.56621 | 60.74784 | 17343 ft | 375 kts | 127° |
| 2026-05-05 19:47 | 29.55049 | 60.77125 | 17152 ft | 357 kts | 127° |
| 2026-05-05 19:47 | 29.53568 | 60.79333 | 17023 ft | 338 kts | 127° |
| 2026-05-05 19:48 | 29.52180 | 60.81404 | 16908 ft | 322 kts | 127° |
| 2026-05-05 19:48 | 29.50399 | 60.84066 | 16635 ft | 306 kts | 127° |
| 2026-05-05 19:48 | 29.49548 | 60.85341 | 16448 ft | 301 kts | 127° |
| 2026-05-05 19:48 | 29.47866 | 60.87865 | 16085 ft | 292 kts | 127° |
| 2026-05-05 19:49 | 29.47059 | 60.89082 | 15929 ft | 287 kts | 127° |
| 2026-05-05 19:49 | 29.45859 | 60.90895 | 15578 ft | 279 kts | 127° |
| 2026-05-05 19:49 | 29.44642 | 60.92592 | 15139 ft | 275 kts | 140° |
| 2026-05-05 19:49 | 29.43011 | 60.93657 | 14732 ft | 267 kts | 165° |
| 2026-05-05 19:50 | 29.41818 | 60.94036 | 14460 ft | 263 kts | 168° |
| 2026-05-05 19:50 | 29.39437 | 60.94698 | 13899 ft | 259 kts | 168° |
| 2026-05-05 19:50 | 29.37690 | 60.95178 | 13489 ft | 256 kts | 168° |
| 2026-05-05 19:51 | 29.34404 | 60.96675 | 12670 ft | 251 kts | 158° |
| 2026-05-05 19:51 | 29.32814 | 60.97492 | 12262 ft | 249 kts | 158° |
| 2026-05-05 19:51 | 29.31470 | 60.98179 | 11926 ft | 247 kts | 158° |
| 2026-05-05 19:51 | 29.29377 | 60.99243 | 11398 ft | 244 kts | 158° |
| 2026-05-05 19:52 | 29.28331 | 60.99770 | 11133 ft | 243 kts | 158° |
| 2026-05-05 19:52 | 29.26803 | 61.00541 | 10745 ft | 241 kts | 158° |
| 2026-05-05 19:52 | 29.25254 | 61.01317 | 10349 ft | 239 kts | 158° |
| 2026-05-05 19:52 | 29.23668 | 61.01767 | 9996 ft | 231 kts | 185° |
| 2026-05-05 19:53 | 29.22203 | 61.01255 | 9776 ft | 220 kts | 217° |
| 2026-05-05 19:53 | 29.21122 | 60.99390 | 9472 ft | 211 kts | 262° |
| 2026-05-05 19:53 | 29.21157 | 60.98278 | 9358 ft | 212 kts | 283° |
| 2026-05-05 19:53 | 29.21940 | 60.96189 | 9143 ft | 216 kts | 302° |
| 2026-05-05 19:54 | 29.22781 | 60.94796 | 9072 ft | 205 kts | 313° |
| 2026-05-05 19:54 | 29.23982 | 60.93902 | 9016 ft | 203 kts | 337° |
| 2026-05-05 19:54 | 29.25271 | 60.93432 | 8789 ft | 187 kts | 347° |
| 2026-05-05 19:54 | 29.26118 | 60.93262 | 8580 ft | 179 kts | 352° |
| 2026-05-05 19:55 | 29.27302 | 60.93134 | 8330 ft | 163 kts | 355° |
| 2026-05-05 19:55 | 29.28424 | 60.93061 | 8033 ft | 160 kts | 356° |
| 2026-05-05 19:55 | 29.29542 | 60.92986 | 7804 ft | 161 kts | 355° |
| 2026-05-05 19:55 | 29.30670 | 60.92883 | 7601 ft | 162 kts | 354° |
| 2026-05-05 19:56 | 29.31790 | 60.92753 | 7387 ft | 161 kts | 353° |
| 2026-05-05 19:56 | 29.32917 | 60.92600 | 7159 ft | 162 kts | 353° |
| 2026-05-05 19:56 | 29.33829 | 60.92468 | 6975 ft | 163 kts | 352° |
| 2026-05-05 19:56 | 29.34591 | 60.92354 | 6823 ft | 163 kts | 352° |
| 2026-05-05 19:57 | 29.35726 | 60.92182 | 6597 ft | 164 kts | 353° |
| 2026-05-05 19:57 | 29.37244 | 60.91959 | 6296 ft | 165 kts | 353° |
| 2026-05-05 19:57 | 29.38398 | 60.91795 | 6067 ft | 165 kts | 353° |
| 2026-05-05 19:57 | 29.39548 | 60.91636 | 5843 ft | 167 kts | 353° |
| 2026-05-05 19:58 | 29.40707 | 60.91475 | 5616 ft | 167 kts | 353° |
| 2026-05-05 19:58 | 29.41875 | 60.91299 | 5393 ft | 167 kts | 352° |
| 2026-05-05 19:58 | 29.43038 | 60.91143 | 5156 ft | 166 kts | 354° |
| 2026-05-05 19:58 | 29.44172 | 60.91008 | 4922 ft | 164 kts | 353° |
| 2026-05-05 19:59 | 29.44939 | 60.90896 | 4771 ft | 161 kts | 351° |
| 2026-05-05 19:59 | 29.46753 | 60.90610 | 4542 ft | 146 kts | 353° |
| 2026-05-05 19:59 | 29.47323 | 60.90532 | 4537 ft | 103 kts | 352° |
| 2026-05-05 19:59 | 29.47859 | 60.90454 | 4527 ft | 42 kts | 356° |
| 2026-05-05 20:00 | 29.47923 | 60.90448 | 4526 ft | 1 kts | 354° |
| 2026-05-05 20:00 | 29.47938 | 60.90447 | 4526 ft | 3 kts | 354° |
| 2026-05-05 20:00 | 29.47982 | 60.90435 | 4525 ft | 9 kts | 336° |
| 2026-05-05 20:00 | 29.48011 | 60.90366 | 4524 ft | 11 kts | 261° |
| 2026-05-05 20:01 | 29.47996 | 60.90268 | 4526 ft | 11 kts | 244° |
| 2026-05-05 20:01 | 29.47945 | 60.90232 | 4527 ft | 0 kts | 177° |